createdAt,value
2022-10-24T00:00:17.895Z,5.33
2022-10-24T00:01:22.360Z,5.50
2022-10-24T00:02:24.603Z,4.87
2022-10-24T00:03:26.327Z,4.93
2022-10-24T00:04:27.879Z,5.00
2022-10-24T00:05:29.482Z,4.43
2022-10-24T00:06:33.833Z,4.77
2022-10-24T00:07:35.418Z,5.07
2022-10-24T00:08:37.848Z,4.70
2022-10-24T00:09:39.425Z,4.77
2022-10-24T00:10:43.886Z,4.97
2022-10-24T00:11:45.498Z,5.50
2022-10-24T00:12:47.380Z,5.03
2022-10-24T00:13:50.364Z,5.53
2022-10-24T00:14:51.989Z,5.07
2022-10-24T00:15:53.562Z,5.10
2022-10-24T00:16:55.272Z,5.43
2022-10-24T00:17:56.963Z,5.80
2022-10-24T00:18:58.646Z,5.27
2022-10-24T00:20:02.705Z,5.87
2022-10-24T00:21:07.571Z,5.13
2022-10-24T00:22:09.394Z,5.40
2022-10-24T00:23:13.618Z,5.30
2022-10-24T00:24:15.562Z,5.23
2022-10-24T00:25:17.272Z,5.27
2022-10-24T00:26:19.032Z,5.43
2022-10-24T00:27:20.649Z,5.93
2022-10-24T00:28:22.260Z,5.83
2022-10-24T00:29:24.746Z,5.30
2022-10-24T00:30:26.534Z,5.60
2022-10-24T00:31:28.550Z,5.97
2022-10-24T00:32:30.090Z,5.80
2022-10-24T00:33:31.732Z,6.10
2022-10-24T00:34:33.373Z,5.67
2022-10-24T00:35:34.980Z,5.43
2022-10-24T00:36:36.634Z,5.37
2022-10-24T00:37:38.286Z,5.67
2022-10-24T00:38:39.942Z,4.87
2022-10-24T00:39:41.503Z,5.60
2022-10-24T00:40:43.650Z,5.63
2022-10-24T00:41:45.442Z,5.67
2022-10-24T00:42:48.560Z,5.47
2022-10-24T00:43:50.534Z,5.43
2022-10-24T00:44:53.578Z,5.20
2022-10-24T00:45:56.809Z,5.50
2022-10-24T00:47:05.143Z,5.07
2022-10-24T00:48:35.562Z,5.27
2022-10-24T00:50:13.311Z,4.80
2022-10-24T00:51:24.775Z,4.93
2022-10-24T00:52:33.075Z,4.80
2022-10-24T00:53:40.748Z,5.17
2022-10-24T00:54:43.164Z,5.03
2022-10-24T00:55:48.346Z,5.30
2022-10-24T00:57:00.105Z,4.80
2022-10-24T00:58:02.733Z,6.20
2022-10-24T00:59:07.256Z,5.90
2022-10-24T01:00:20.991Z,5.60
2022-10-24T01:01:25.475Z,5.40
2022-10-24T01:02:27.343Z,6.10
2022-10-24T01:03:31.607Z,6.13
2022-10-24T01:04:33.289Z,6.27
2022-10-24T01:05:54.672Z,6.60
2022-10-24T01:07:11.351Z,6.20
2022-10-24T01:08:42.032Z,6.80
2022-10-24T01:10:06.657Z,6.53
2022-10-24T01:11:23.365Z,6.70
2022-10-24T01:12:38.937Z,6.10
2022-10-24T01:13:57.191Z,6.40
2022-10-24T01:15:22.956Z,5.33
2022-10-24T01:16:34.701Z,5.50
2022-10-24T01:17:48.684Z,5.70
2022-10-24T01:18:58.472Z,5.53
2022-10-24T01:20:26.724Z,5.87
2022-10-24T01:21:40.144Z,6.37
2022-10-24T01:23:19.123Z,6.20
2022-10-24T01:24:49.505Z,5.50
2022-10-24T01:25:50.995Z,5.50
2022-10-24T01:27:09.914Z,5.10
2022-10-24T01:28:16.755Z,5.07
2022-10-24T01:29:32.329Z,5.77
2022-10-24T01:30:43.356Z,5.07
2022-10-24T01:31:57.805Z,5.33
2022-10-24T01:33:15.929Z,5.33
2022-10-24T01:34:29.065Z,5.20
2022-10-24T01:35:52.067Z,4.87
2022-10-24T01:37:08.022Z,4.33
2022-10-24T01:38:14.770Z,5.07
2022-10-24T01:39:20.433Z,5.73
2022-10-24T01:40:55.169Z,4.77
2022-10-24T01:41:58.756Z,5.40
2022-10-24T01:43:08.248Z,4.93
2022-10-24T01:44:25.598Z,5.07
2022-10-24T01:45:34.689Z,4.50
2022-10-24T01:46:44.550Z,4.30
2022-10-24T01:47:53.717Z,4.53
2022-10-24T01:49:05.376Z,4.63
2022-10-24T01:50:11.913Z,4.70
2022-10-24T01:51:17.147Z,4.60
2022-10-24T01:52:20.159Z,5.60
2022-10-24T01:53:25.034Z,4.77
2022-10-24T01:54:28.257Z,5.17
2022-10-24T01:55:32.698Z,5.10
2022-10-24T01:56:34.689Z,4.57
2022-10-24T01:57:36.305Z,5.10
2022-10-24T01:58:37.950Z,5.23
2022-10-24T01:59:43.405Z,5.40
2022-10-24T02:00:47.267Z,5.40
2022-10-24T02:01:49.149Z,5.17
2022-10-24T02:03:04.105Z,4.90
2022-10-24T02:04:11.077Z,4.87
2022-10-24T02:05:17.182Z,4.97
2022-10-24T02:06:35.231Z,5.03
2022-10-24T02:07:40.977Z,4.80
2022-10-24T02:08:48.880Z,6.27
2022-10-24T02:10:00.578Z,5.60
2022-10-24T02:11:06.655Z,5.37
2022-10-24T02:12:10.385Z,5.47
2022-10-24T02:13:19.264Z,5.00
2022-10-24T02:14:28.205Z,4.80
2022-10-24T02:15:33.884Z,4.80
2022-10-24T02:16:35.713Z,5.10
2022-10-24T02:17:39.559Z,5.03
2022-10-24T02:18:41.609Z,5.73
2022-10-24T02:19:44.473Z,4.73
2022-10-24T02:20:54.840Z,4.80
2022-10-24T02:22:02.189Z,4.77
2022-10-24T02:23:13.277Z,4.73
2022-10-24T02:24:22.161Z,4.63
2022-10-24T02:25:33.700Z,4.83
2022-10-24T02:26:41.799Z,4.70
2022-10-24T02:27:55.851Z,4.60
2022-10-24T02:29:01.803Z,5.23
2022-10-24T02:30:13.675Z,4.60
2022-10-24T02:31:21.851Z,5.40
2022-10-24T02:32:29.736Z,5.20
2022-10-24T02:33:34.248Z,4.40
2022-10-24T02:34:38.579Z,4.77
2022-10-24T02:35:41.618Z,4.13
2022-10-24T02:36:44.951Z,4.73
2022-10-24T02:37:51.725Z,5.20
2022-10-24T02:38:55.338Z,4.33
2022-10-24T02:39:59.545Z,4.30
2022-10-24T02:41:04.990Z,4.67
2022-10-24T02:42:08.707Z,4.83
2022-10-24T02:43:12.813Z,4.70
2022-10-24T02:44:16.634Z,4.90
2022-10-24T02:45:21.142Z,5.07
2022-10-24T02:46:25.321Z,5.53
2022-10-24T02:47:28.597Z,4.63
2022-10-24T02:48:34.825Z,4.73
2022-10-24T02:49:36.603Z,5.30
2022-10-24T02:50:41.024Z,5.20
2022-10-24T02:51:46.060Z,5.23
2022-10-24T02:52:48.268Z,4.80
2022-10-24T02:53:50.852Z,4.20
2022-10-24T02:54:53.659Z,4.40
2022-10-24T02:55:55.402Z,4.83
2022-10-24T02:57:01.431Z,4.80
2022-10-24T02:58:03.208Z,4.77
2022-10-24T02:59:04.870Z,4.50
2022-10-24T03:00:08.012Z,5.20
2022-10-24T03:01:09.917Z,5.20
2022-10-24T03:02:11.731Z,4.70
2022-10-24T03:03:13.765Z,5.13
2022-10-24T03:04:15.624Z,4.40
2022-10-24T03:05:17.312Z,4.50
2022-10-24T03:06:18.960Z,4.57
2022-10-24T03:07:20.744Z,4.57
2022-10-24T03:08:22.444Z,4.70
2022-10-24T03:09:24.111Z,4.50
2022-10-24T03:10:25.775Z,5.23
2022-10-24T03:11:27.587Z,4.90
2022-10-24T03:12:29.192Z,4.87
2022-10-24T03:13:30.842Z,4.87
2022-10-24T03:14:32.856Z,5.33
2022-10-24T03:15:34.580Z,5.17
2022-10-24T03:16:36.312Z,4.93
2022-10-24T03:17:37.997Z,5.50
2022-10-24T03:18:39.778Z,4.90
2022-10-24T03:19:41.413Z,5.40
2022-10-24T03:20:43.067Z,4.90
2022-10-24T03:21:44.762Z,5.27
2022-10-24T03:22:46.393Z,4.60
2022-10-24T03:23:48.181Z,5.07
2022-10-24T03:24:56.465Z,5.73
2022-10-24T03:25:59.317Z,5.30
2022-10-24T03:27:00.972Z,5.83
2022-10-24T03:28:02.680Z,5.07
2022-10-24T03:29:04.845Z,5.20
2022-10-24T03:30:07.355Z,5.43
2022-10-24T03:31:09.155Z,5.80
2022-10-24T03:32:13.177Z,5.53
2022-10-24T03:33:19.019Z,5.20
2022-10-24T03:34:20.838Z,5.53
2022-10-24T03:35:22.616Z,5.27
2022-10-24T03:36:24.520Z,5.73
2022-10-24T03:37:26.541Z,5.80
2022-10-24T03:38:28.289Z,5.90
2022-10-24T03:39:32.220Z,6.37
2022-10-24T03:40:37.430Z,6.23
2022-10-24T03:41:39.060Z,6.63
2022-10-24T03:42:40.740Z,6.40
2022-10-24T03:43:42.513Z,7.47
2022-10-24T03:44:44.227Z,6.70
2022-10-24T03:45:45.989Z,6.17
2022-10-24T03:46:47.750Z,6.53
2022-10-24T03:47:49.448Z,5.67
2022-10-24T03:48:51.110Z,6.37
2022-10-24T03:49:52.839Z,6.37
2022-10-24T03:50:56.009Z,5.53
2022-10-24T03:51:57.743Z,6.43
2022-10-24T03:53:00.016Z,6.37
2022-10-24T03:54:01.605Z,5.97
2022-10-24T03:55:03.417Z,5.87
2022-10-24T03:56:05.254Z,6.77
2022-10-24T03:57:09.969Z,6.40
2022-10-24T03:58:11.601Z,5.93
2022-10-24T03:59:13.600Z,6.57
2022-10-24T04:00:15.650Z,6.40
2022-10-24T04:01:18.643Z,6.40
2022-10-24T04:02:20.581Z,6.37
2022-10-24T04:03:22.167Z,6.50
2022-10-24T04:04:23.844Z,6.53
2022-10-24T04:05:25.478Z,5.90
2022-10-24T04:06:27.429Z,5.87
2022-10-24T04:07:31.230Z,5.50
2022-10-24T04:08:32.830Z,5.80
2022-10-24T04:09:34.505Z,5.07
2022-10-24T04:10:36.327Z,5.93
2022-10-24T04:11:40.725Z,6.53
2022-10-24T04:12:42.436Z,6.43
2022-10-24T04:13:44.274Z,7.23
2022-10-24T04:14:48.345Z,6.50
2022-10-24T04:15:50.059Z,6.57
2022-10-24T04:16:51.731Z,6.30
2022-10-24T04:17:53.419Z,6.50
2022-10-24T04:18:55.014Z,6.10
2022-10-24T04:19:56.587Z,5.80
2022-10-24T04:20:58.277Z,6.60
2022-10-24T04:22:00.296Z,5.97
2022-10-24T04:23:04.410Z,5.33
2022-10-24T04:24:06.831Z,6.10
2022-10-24T04:25:08.531Z,5.70
2022-10-24T04:26:12.976Z,5.90
2022-10-24T04:27:14.575Z,5.80
2022-10-24T04:28:16.353Z,5.87
2022-10-24T04:29:17.989Z,5.73
2022-10-24T04:30:19.683Z,5.97
2022-10-24T04:31:23.518Z,6.67
2022-10-24T04:32:25.580Z,5.87
2022-10-24T04:33:27.164Z,6.20
2022-10-24T04:34:28.729Z,6.03
2022-10-24T04:35:30.609Z,5.53
2022-10-24T04:36:43.051Z,5.33
2022-10-24T04:37:44.636Z,6.00
2022-10-24T04:38:46.273Z,6.30
2022-10-24T04:39:48.142Z,6.23
2022-10-24T04:40:54.293Z,6.17
2022-10-24T04:41:56.039Z,5.83
2022-10-24T04:42:57.665Z,6.27
2022-10-24T04:43:59.506Z,6.40
2022-10-24T04:45:01.106Z,6.03
2022-10-24T04:46:02.744Z,5.73
2022-10-24T04:47:04.444Z,5.93
2022-10-24T04:48:06.448Z,5.70
2022-10-24T04:49:08.091Z,5.40
2022-10-24T04:50:10.179Z,5.77
2022-10-24T04:51:12.068Z,6.23
2022-10-24T04:52:13.798Z,5.87
2022-10-24T04:53:17.333Z,6.07
2022-10-24T04:54:18.985Z,5.67
2022-10-24T04:55:20.605Z,6.20
2022-10-24T04:56:22.928Z,5.60
2022-10-24T04:57:26.926Z,5.87
2022-10-24T04:58:28.636Z,5.80
2022-10-24T04:59:30.234Z,5.70
2022-10-24T05:00:31.948Z,5.57
2022-10-24T05:01:33.702Z,6.50
2022-10-24T05:02:35.520Z,5.47
2022-10-24T05:03:37.252Z,5.90
2022-10-24T05:04:38.954Z,5.50
2022-10-24T05:05:40.902Z,5.70
2022-10-24T05:06:45.022Z,5.43
2022-10-24T05:07:47.494Z,5.77
2022-10-24T05:08:49.272Z,6.50
2022-10-24T05:09:50.903Z,5.67
2022-10-24T05:10:52.997Z,5.57
2022-10-24T05:11:55.846Z,5.60
2022-10-24T05:12:57.651Z,4.90
2022-10-24T05:13:59.936Z,5.27
2022-10-24T05:15:01.516Z,5.57
2022-10-24T05:16:03.540Z,5.20
2022-10-24T05:17:05.081Z,5.30
2022-10-24T05:18:06.830Z,5.47
2022-10-24T05:19:08.507Z,4.97
2022-10-24T05:20:10.636Z,5.63
2022-10-24T05:21:12.605Z,5.83
2022-10-24T05:22:14.144Z,5.33
2022-10-24T05:23:15.873Z,6.00
2022-10-24T05:24:17.507Z,5.80
2022-10-24T05:25:19.439Z,5.77
2022-10-24T05:26:20.964Z,7.93
2022-10-24T05:27:24.852Z,8.93
2022-10-24T05:28:26.419Z,8.00
2022-10-24T05:29:28.001Z,6.37
2022-10-24T05:30:29.562Z,6.27
2022-10-24T05:32:33.811Z,8.47
2022-10-24T05:33:37.553Z,8.80
2022-10-24T05:34:39.381Z,9.27
2022-10-24T05:35:41.860Z,9.17
2022-10-24T05:36:43.703Z,8.80
2022-10-24T05:37:45.438Z,10.07
2022-10-24T05:38:47.065Z,9.67
2022-10-24T05:39:48.655Z,10.73
2022-10-24T05:40:51.540Z,10.63
2022-10-24T05:41:55.298Z,11.33
2022-10-24T05:42:57.210Z,11.80
2022-10-24T05:43:58.940Z,10.67
2022-10-24T05:45:00.492Z,10.77
2022-10-24T05:46:02.118Z,10.57
2022-10-24T05:47:03.756Z,11.00
2022-10-24T05:48:06.093Z,11.03
2022-10-24T05:49:07.794Z,12.17
2022-10-24T05:50:10.562Z,10.57
2022-10-24T05:51:12.157Z,10.93
2022-10-24T05:52:13.704Z,9.77
2022-10-24T05:53:15.396Z,9.47
2022-10-24T05:54:17.306Z,8.80
2022-10-24T05:55:19.131Z,7.33
2022-10-24T05:56:20.716Z,8.63
2022-10-24T05:57:25.397Z,9.33
2022-10-24T05:58:27.631Z,8.83
2022-10-24T05:59:29.302Z,8.90
2022-10-24T06:00:33.893Z,10.07
2022-10-24T06:01:35.658Z,9.10
2022-10-24T06:02:37.328Z,9.07
2022-10-24T06:03:39.625Z,8.87
2022-10-24T06:04:41.185Z,8.53
2022-10-24T06:05:43.101Z,9.70
2022-10-24T06:06:45.422Z,11.10
2022-10-24T06:07:47.753Z,10.17
2022-10-24T06:08:50.191Z,11.60
2022-10-24T06:09:51.778Z,11.77
2022-10-24T06:10:53.701Z,10.83
2022-10-24T06:11:55.311Z,11.47
2022-10-24T06:12:56.884Z,13.50
2022-10-24T06:13:58.582Z,12.73
2022-10-24T06:15:00.883Z,11.93
2022-10-24T06:16:05.782Z,12.13
2022-10-24T06:17:16.644Z,14.10
2022-10-24T06:18:18.275Z,13.13
2022-10-24T06:19:21.813Z,12.53
2022-10-24T06:20:23.499Z,11.43
2022-10-24T06:21:25.153Z,11.93
2022-10-24T06:22:29.657Z,11.30
2022-10-24T06:23:31.905Z,11.80
2022-10-24T06:24:38.207Z,12.83
2022-10-24T06:25:43.229Z,12.07
2022-10-24T06:26:44.941Z,11.60
2022-10-24T06:27:46.513Z,11.93
2022-10-24T06:28:48.093Z,11.57
2022-10-24T06:29:49.694Z,11.90
2022-10-24T06:30:52.536Z,11.30
2022-10-24T06:31:54.197Z,10.87
2022-10-24T06:32:55.747Z,11.60
2022-10-24T06:33:57.577Z,11.73
2022-10-24T06:34:59.180Z,10.00
2022-10-24T06:36:05.630Z,10.67
2022-10-24T06:37:07.192Z,11.17
2022-10-24T06:38:08.935Z,10.43
2022-10-24T06:39:11.645Z,10.17
2022-10-24T06:40:13.309Z,9.20
2022-10-24T06:41:17.265Z,10.10
2022-10-24T06:42:18.885Z,9.60
2022-10-24T06:43:20.821Z,10.00
2022-10-24T06:44:22.851Z,10.97
2022-10-24T06:45:24.773Z,12.03
2022-10-24T06:46:26.325Z,11.30
2022-10-24T06:47:28.002Z,11.97
2022-10-24T06:48:29.524Z,10.03
2022-10-24T06:49:31.072Z,12.30
2022-10-24T06:50:32.622Z,10.80
2022-10-24T06:51:34.585Z,9.77
2022-10-24T06:52:37.355Z,9.13
2022-10-24T06:53:38.907Z,9.57
2022-10-24T06:54:43.619Z,9.73
2022-10-24T06:55:45.167Z,9.33
2022-10-24T06:56:46.767Z,9.60
2022-10-24T06:57:48.376Z,9.13
2022-10-24T06:58:49.942Z,9.77
2022-10-24T06:59:51.482Z,9.27
2022-10-24T07:00:53.124Z,8.40
2022-10-24T07:01:54.878Z,9.30
2022-10-24T07:02:56.471Z,8.87
2022-10-24T07:03:58.042Z,8.73
2022-10-24T07:04:59.611Z,9.17
2022-10-24T07:06:10.375Z,9.33
2022-10-24T07:07:16.778Z,8.70
2022-10-24T07:08:18.450Z,8.87
2022-10-24T07:09:20.396Z,9.03
2022-10-24T07:10:22.097Z,8.87
2022-10-24T07:11:24.707Z,8.77
2022-10-24T07:12:26.692Z,8.90
2022-10-24T07:13:29.696Z,9.20
2022-10-24T07:14:31.261Z,8.63
2022-10-24T07:15:32.999Z,8.57
2022-10-24T07:16:34.689Z,7.97
2022-10-24T07:17:43.844Z,8.33
2022-10-24T07:18:45.422Z,8.47
2022-10-24T07:19:55.152Z,8.53
2022-10-24T07:21:13.025Z,8.50
2022-10-24T07:22:14.637Z,8.47
2022-10-24T07:23:16.262Z,8.03
2022-10-24T07:24:18.211Z,8.97
2022-10-24T07:25:20.989Z,8.87
2022-10-24T07:26:24.975Z,8.70
2022-10-24T07:27:26.736Z,8.83
2022-10-24T07:28:28.581Z,8.90
2022-10-24T07:29:30.225Z,9.10
2022-10-24T07:30:31.886Z,9.00
2022-10-24T07:31:35.914Z,9.63
2022-10-24T07:32:37.472Z,8.93
2022-10-24T07:33:40.294Z,9.33
2022-10-24T07:34:41.908Z,9.27
2022-10-24T07:35:43.483Z,9.80
2022-10-24T07:36:45.077Z,9.30
2022-10-24T07:37:46.924Z,8.40
2022-10-24T07:38:50.163Z,8.37
2022-10-24T07:39:51.740Z,8.10
2022-10-24T07:40:53.415Z,8.00
2022-10-24T07:41:55.037Z,8.87
2022-10-24T07:42:56.594Z,8.70
2022-10-24T07:44:02.542Z,8.37
2022-10-24T07:45:04.488Z,7.73
2022-10-24T07:46:07.704Z,7.93
2022-10-24T07:47:10.134Z,7.73
2022-10-24T07:48:11.997Z,7.93
2022-10-24T07:49:13.569Z,7.33
2022-10-24T07:50:17.311Z,6.80
2022-10-24T07:51:19.616Z,6.93
2022-10-24T07:52:21.181Z,6.77
2022-10-24T07:53:22.677Z,7.43
2022-10-24T07:54:25.730Z,7.30
2022-10-24T07:55:27.425Z,7.07
2022-10-24T07:56:29.033Z,6.27
2022-10-24T07:57:30.618Z,6.87
2022-10-24T07:58:32.179Z,6.80
2022-10-24T07:59:42.603Z,6.70
2022-10-24T08:00:45.637Z,7.33
2022-10-24T08:01:47.513Z,7.57
2022-10-24T08:03:56.805Z,7.37
2022-10-24T08:04:58.613Z,7.23
2022-10-24T08:06:00.545Z,7.03
2022-10-24T08:07:02.100Z,7.93
2022-10-24T08:08:19.991Z,7.00
2022-10-24T08:09:26.615Z,7.63
2022-10-24T08:10:28.235Z,7.70
2022-10-24T08:11:31.409Z,6.73
2022-10-24T08:12:37.945Z,5.93
2022-10-24T08:13:41.683Z,5.77
2022-10-24T08:14:44.327Z,6.88
2022-10-24T08:15:45.860Z,7.18
2022-10-24T08:16:48.748Z,6.85
2022-10-24T08:17:50.293Z,6.70
2022-10-24T08:18:53.721Z,6.43
2022-10-24T08:19:55.316Z,6.70
2022-10-24T08:21:01.013Z,6.72
2022-10-24T08:22:03.671Z,6.80
2022-10-24T08:23:05.288Z,6.93
2022-10-24T08:24:07.197Z,6.35
2022-10-24T08:25:10.184Z,6.40
2022-10-24T08:26:17.674Z,7.15
2022-10-24T08:27:19.266Z,7.97
2022-10-24T08:28:21.008Z,7.47
2022-10-24T08:29:23.501Z,6.17
2022-10-24T08:30:25.083Z,6.25
2022-10-24T08:31:26.824Z,5.60
2022-10-24T08:32:28.411Z,6.18
2022-10-24T08:33:30.724Z,6.60
2022-10-24T08:34:32.637Z,6.57
2022-10-24T08:35:34.212Z,6.15
2022-10-24T08:36:36.305Z,6.25
2022-10-24T08:38:44.726Z,8.55
2022-10-24T08:39:46.291Z,7.13
2022-10-24T08:40:48.979Z,6.38
2022-10-24T08:41:59.402Z,6.75
2022-10-24T08:43:02.015Z,6.18
2022-10-24T08:44:14.419Z,6.70
2022-10-24T08:45:57.527Z,6.03
2022-10-24T08:47:29.151Z,6.85
2022-10-24T08:48:42.136Z,6.27
2022-10-24T08:49:50.481Z,6.70
2022-10-24T08:50:59.104Z,6.90
2022-10-24T08:52:04.661Z,6.47
2022-10-24T08:53:12.646Z,6.70
2022-10-24T08:54:19.553Z,5.75
2022-10-24T08:55:48.678Z,6.47
2022-10-24T08:56:55.337Z,6.70
2022-10-24T08:58:00.941Z,6.57
2022-10-24T08:59:04.475Z,6.95
2022-10-24T09:00:27.796Z,6.50
2022-10-24T09:01:33.474Z,6.75
2022-10-24T09:02:39.808Z,7.07
2022-10-24T09:03:57.557Z,7.68
2022-10-24T09:05:17.386Z,6.82
2022-10-24T09:06:22.313Z,6.70
2022-10-24T09:07:27.932Z,5.90
2022-10-24T09:08:38.546Z,7.47
2022-10-24T09:09:44.417Z,6.60
2022-10-24T09:10:58.104Z,6.68
2022-10-24T09:12:01.296Z,6.32
2022-10-24T09:13:02.961Z,6.28
2022-10-24T09:14:13.432Z,5.15
2022-10-24T09:15:26.093Z,6.32
2022-10-24T09:16:27.797Z,6.78
2022-10-24T09:17:32.706Z,6.50
2022-10-24T09:18:40.276Z,6.53
2022-10-24T09:19:49.948Z,5.70
2022-10-24T09:20:54.081Z,5.80
2022-10-24T09:21:57.659Z,5.55
2022-10-24T09:23:03.211Z,5.65
2022-10-24T09:24:05.333Z,5.53
2022-10-24T09:25:16.150Z,5.20
2022-10-24T09:26:33.100Z,5.65
2022-10-24T09:27:37.908Z,5.22
2022-10-24T09:28:39.832Z,5.80
2022-10-24T09:29:41.954Z,5.07
2022-10-24T09:30:43.957Z,5.65
2022-10-24T09:31:49.393Z,5.32
2022-10-24T09:32:52.789Z,5.60
2022-10-24T09:33:56.706Z,5.22
2022-10-24T09:35:05.764Z,5.07
2022-10-24T09:36:12.561Z,5.45
2022-10-24T09:37:44.250Z,5.25
2022-10-24T09:38:51.554Z,4.97
2022-10-24T09:40:06.730Z,5.55
2022-10-24T09:41:15.865Z,4.45
2022-10-24T09:42:23.851Z,4.55
2022-10-24T09:43:39.030Z,5.35
2022-10-24T09:44:44.087Z,4.93
2022-10-24T09:45:51.566Z,5.63
2022-10-24T09:46:53.351Z,4.57
2022-10-24T09:48:00.321Z,4.40
2022-10-24T09:49:19.738Z,4.53
2022-10-24T09:50:22.527Z,4.43
2022-10-24T09:51:29.198Z,4.65
2022-10-24T09:52:35.655Z,5.05
2022-10-24T09:53:41.000Z,4.55
2022-10-24T09:54:45.314Z,4.63
2022-10-24T09:55:48.365Z,5.18
2022-10-24T09:57:12.625Z,4.07
2022-10-24T09:58:20.616Z,4.13
2022-10-24T09:59:47.974Z,4.22
2022-10-24T10:01:22.819Z,4.30
2022-10-24T10:02:34.608Z,4.03
2022-10-24T10:03:36.353Z,3.40
2022-10-24T10:04:38.902Z,3.35
2022-10-24T10:05:48.244Z,3.90
2022-10-24T10:06:50.672Z,3.45
2022-10-24T10:07:52.941Z,3.38
2022-10-24T10:08:56.465Z,3.53
2022-10-24T10:10:19.997Z,4.00
2022-10-24T10:11:37.627Z,3.35
2022-10-24T10:12:42.439Z,3.30
2022-10-24T10:13:56.195Z,3.58
2022-10-24T10:14:58.070Z,3.10
2022-10-24T10:16:04.202Z,3.50
2022-10-24T10:17:07.499Z,3.83
2022-10-24T10:18:55.582Z,3.58
2022-10-24T10:19:58.336Z,3.65
2022-10-24T10:21:10.024Z,3.47
2022-10-24T10:22:25.584Z,3.40
2022-10-24T10:23:29.221Z,3.10
2022-10-24T10:24:33.721Z,2.80
2022-10-24T10:25:35.411Z,3.20
2022-10-24T10:26:45.591Z,2.83
2022-10-24T10:27:51.254Z,2.90
2022-10-24T10:29:00.131Z,3.15
2022-10-24T10:30:18.576Z,3.10
2022-10-24T10:31:24.865Z,3.10
2022-10-24T10:32:38.076Z,2.80
2022-10-24T10:33:52.491Z,2.85
2022-10-24T10:35:07.929Z,2.85
2022-10-24T10:36:28.054Z,3.03
2022-10-24T10:37:31.908Z,3.05
2022-10-24T10:38:52.275Z,3.30
2022-10-24T10:40:28.779Z,2.75
2022-10-24T10:41:37.390Z,3.22
2022-10-24T10:42:41.693Z,3.30
2022-10-24T10:43:57.598Z,3.22
2022-10-24T10:45:16.960Z,3.45
2022-10-24T10:47:10.844Z,3.72
2022-10-24T10:48:21.663Z,3.50
2022-10-24T10:49:26.002Z,3.15
2022-10-24T10:50:42.443Z,4.72
2022-10-24T10:52:06.652Z,3.28
2022-10-24T10:53:30.159Z,3.53
2022-10-24T10:54:41.636Z,3.50
2022-10-24T10:55:59.117Z,3.13
2022-10-24T10:57:07.750Z,3.45
2022-10-24T10:58:18.157Z,3.50
2022-10-24T10:59:57.455Z,3.55
2022-10-24T11:01:26.401Z,3.92
2022-10-24T11:02:50.610Z,3.90
2022-10-24T11:04:05.248Z,3.53
2022-10-24T11:05:24.511Z,3.75
2022-10-24T11:06:49.291Z,4.20
2022-10-24T11:08:17.178Z,3.75
2022-10-24T11:09:29.627Z,3.78
2022-10-24T11:10:42.064Z,3.53
2022-10-24T11:11:52.096Z,4.50
2022-10-24T11:12:55.872Z,3.38
2022-10-24T11:14:11.292Z,4.18
2022-10-24T11:15:29.727Z,3.65
2022-10-24T11:16:32.393Z,3.63
2022-10-24T11:17:50.962Z,3.45
2022-10-24T11:18:57.087Z,3.88
2022-10-24T11:20:18.211Z,4.13
2022-10-24T11:21:24.077Z,4.32
2022-10-24T11:22:31.164Z,3.88
2022-10-24T11:23:51.629Z,4.10
2022-10-24T11:25:02.597Z,4.07
2022-10-24T11:26:09.508Z,4.32
2022-10-24T11:28:55.750Z,3.72
2022-10-24T11:30:06.787Z,3.70
2022-10-24T11:31:17.273Z,4.82
2022-10-24T11:32:54.929Z,3.92
2022-10-24T11:34:16.256Z,3.67
2022-10-24T11:35:31.121Z,4.13
2022-10-24T11:36:53.407Z,3.92
2022-10-24T11:38:05.418Z,3.97
2022-10-24T11:39:20.203Z,4.13
2022-10-24T11:40:25.008Z,4.38
2022-10-24T11:41:58.430Z,4.22
2022-10-24T11:43:33.259Z,4.63
2022-10-24T11:44:50.554Z,3.88
2022-10-24T11:46:02.553Z,3.65
2022-10-24T11:47:19.495Z,3.92
2022-10-24T11:48:53.294Z,3.72
2022-10-24T11:49:55.074Z,3.88
2022-10-24T11:51:01.070Z,3.72
2022-10-24T11:52:19.039Z,3.70
2022-10-24T11:53:47.301Z,3.70
2022-10-24T11:54:59.294Z,4.72
2022-10-24T11:56:37.812Z,4.15
2022-10-24T11:57:43.566Z,3.90
2022-10-24T11:59:26.699Z,4.18
2022-10-24T12:00:37.870Z,4.10
2022-10-24T12:01:57.347Z,4.03
2022-10-24T12:03:26.229Z,3.88
2022-10-24T12:05:09.367Z,4.30
2022-10-24T12:06:29.827Z,4.25
2022-10-24T12:07:52.922Z,4.38
2022-10-24T12:09:09.312Z,4.13
2022-10-24T12:10:14.009Z,4.15
2022-10-24T12:11:41.989Z,4.32
2022-10-24T12:12:49.284Z,4.10
2022-10-24T12:14:28.608Z,5.00
2022-10-24T12:15:56.962Z,4.55
2022-10-24T12:17:18.887Z,4.22
2022-10-24T12:18:30.412Z,4.38
2022-10-24T12:19:32.508Z,4.30
2022-10-24T12:20:35.332Z,4.57
2022-10-24T12:21:50.146Z,4.82
2022-10-24T12:22:53.938Z,5.00
2022-10-24T12:23:59.050Z,4.63
2022-10-24T12:25:10.931Z,4.28
2022-10-24T12:26:24.232Z,5.30
2022-10-24T12:27:39.690Z,4.78
2022-10-24T12:28:43.490Z,4.47
2022-10-24T12:29:45.070Z,4.00
2022-10-24T12:31:22.278Z,4.55
2022-10-24T12:32:42.383Z,4.50
2022-10-24T12:34:04.959Z,4.43
2022-10-24T12:35:49.441Z,4.25
2022-10-24T12:37:18.680Z,4.28
2022-10-24T12:38:29.488Z,5.03
2022-10-24T12:39:37.490Z,4.20
2022-10-24T12:40:45.383Z,4.35
2022-10-24T12:41:47.194Z,5.22
2022-10-24T12:42:51.999Z,4.15
2022-10-24T12:44:37.103Z,4.55
2022-10-24T12:45:38.918Z,5.32
2022-10-24T12:46:40.404Z,4.22
2022-10-24T12:48:02.770Z,4.22
2022-10-24T12:49:10.447Z,4.32
2022-10-24T12:50:23.726Z,4.20
2022-10-24T12:51:38.123Z,3.97
2022-10-24T12:52:45.888Z,4.38
2022-10-24T12:54:06.026Z,4.65
2022-10-24T12:55:39.475Z,5.13
2022-10-24T12:56:51.242Z,6.35
2022-10-24T12:57:53.153Z,5.18
2022-10-24T12:59:16.103Z,4.20
2022-10-24T13:00:30.186Z,4.40
2022-10-24T13:01:36.626Z,4.47
2022-10-24T13:02:47.785Z,4.13
2022-10-24T13:03:53.485Z,5.13
2022-10-24T13:05:33.631Z,4.80
2022-10-24T13:06:50.257Z,5.45
2022-10-24T13:08:13.491Z,5.35
2022-10-24T13:09:30.861Z,4.57
2022-10-24T13:11:03.147Z,4.00
2022-10-24T13:12:28.526Z,4.30
2022-10-24T13:13:39.406Z,4.13
2022-10-24T13:14:43.471Z,5.00
2022-10-24T13:16:12.905Z,4.30
2022-10-24T13:17:40.248Z,4.38
2022-10-24T13:19:03.931Z,4.25
2022-10-24T13:20:18.383Z,4.32
2022-10-24T13:21:51.956Z,4.43
2022-10-24T13:23:12.320Z,4.43
2022-10-24T13:24:16.719Z,4.00
2022-10-24T13:25:36.667Z,5.07
2022-10-24T13:26:45.575Z,4.10
2022-10-24T13:28:25.294Z,4.68
2022-10-24T13:29:30.978Z,4.25
2022-10-24T13:30:40.034Z,4.18
2022-10-24T13:31:55.002Z,4.05
2022-10-24T13:33:33.984Z,4.30
2022-10-24T13:34:48.985Z,5.13
2022-10-24T13:35:51.555Z,4.20
2022-10-24T13:37:24.449Z,4.25
2022-10-24T13:38:26.564Z,4.72
2022-10-24T13:39:41.325Z,4.10
2022-10-24T13:40:46.118Z,4.88
2022-10-24T13:41:58.654Z,4.90
2022-10-24T13:43:07.550Z,5.18
2022-10-24T13:44:12.197Z,4.80
2022-10-24T13:45:28.846Z,4.63
2022-10-24T13:46:54.360Z,4.53
2022-10-24T13:48:12.101Z,4.35
2022-10-24T13:49:27.731Z,3.95
2022-10-24T13:50:33.944Z,4.25
2022-10-24T13:51:45.906Z,4.45
2022-10-24T13:53:00.542Z,4.72
2022-10-24T13:54:21.169Z,5.15
2022-10-24T13:55:33.458Z,4.53
2022-10-24T13:56:41.421Z,4.90
2022-10-24T13:57:55.571Z,4.63
2022-10-24T13:58:57.206Z,4.70
2022-10-24T14:00:02.587Z,4.55
2022-10-24T14:01:37.670Z,5.32
2022-10-24T14:02:45.874Z,4.68
2022-10-24T14:03:49.243Z,5.43
2022-10-24T14:04:54.734Z,4.97
2022-10-24T14:06:03.616Z,4.97
2022-10-24T14:07:09.560Z,5.13
2022-10-24T14:08:28.547Z,6.28
2022-10-24T14:09:30.930Z,6.20
2022-10-24T14:10:32.877Z,6.90
2022-10-24T14:11:39.607Z,5.78
2022-10-24T14:12:41.775Z,5.15
2022-10-24T14:13:48.896Z,5.40
2022-10-24T14:14:52.849Z,5.47
2022-10-24T14:16:04.281Z,5.10
2022-10-24T14:17:26.390Z,4.82
2022-10-24T14:18:28.241Z,4.85
2022-10-24T14:19:36.186Z,5.43
2022-10-24T14:20:39.036Z,4.78
2022-10-24T14:21:43.412Z,4.80
2022-10-24T14:22:45.212Z,4.68
2022-10-24T14:23:58.360Z,5.30
2022-10-24T14:25:00.202Z,4.50
2022-10-24T14:26:08.688Z,5.97
2022-10-24T14:27:13.473Z,5.65
2022-10-24T14:28:17.371Z,5.43
2022-10-24T14:29:27.768Z,5.90
2022-10-24T14:30:34.271Z,5.53
2022-10-24T14:31:37.192Z,5.63
2022-10-24T14:32:39.362Z,5.07
2022-10-24T14:33:50.497Z,5.50
2022-10-24T14:34:55.556Z,6.03
2022-10-24T14:36:11.415Z,5.80
2022-10-24T14:37:19.314Z,6.03
2022-10-24T14:38:22.707Z,6.55
2022-10-24T14:39:24.563Z,6.03
2022-10-24T14:40:26.372Z,6.00
2022-10-24T14:41:33.146Z,6.10
2022-10-24T14:42:35.054Z,5.32
2022-10-24T14:43:42.118Z,5.80
2022-10-24T14:44:47.725Z,5.80
2022-10-24T14:46:26.038Z,5.13
2022-10-24T14:47:35.708Z,5.10
2022-10-24T14:48:40.698Z,4.50
2022-10-24T14:49:42.317Z,4.68
2022-10-24T14:50:47.218Z,4.90
2022-10-24T14:52:55.626Z,4.45
2022-10-24T14:53:57.791Z,4.72
2022-10-24T14:55:18.560Z,4.95
2022-10-24T14:56:38.887Z,4.35
2022-10-24T14:57:50.557Z,5.03
2022-10-24T14:58:54.607Z,4.75
2022-10-24T14:59:59.507Z,4.50
2022-10-24T15:01:02.331Z,4.30
2022-10-24T15:02:06.872Z,4.90
2022-10-24T15:03:10.425Z,4.43